KDPA/DPA METAR and TAF weather

Enter ICAO airport designator
Station Type Date Time Source
KDPA METAR 2022/01/23 11:52 UTC NOAA

KDPA 231152Z 36016KT 4SM -SN SCT042 OVC070 M08/M11 A2985 RMK AO2 SLP119 P0000 60015 70016 T10781106 11067 21078 53007


Station Type Date Time Source
KDPA Decoded METAR 2022/01/23 11:52 UTC NOAA

CHICAGO/WEST CH DUPAGE, IL, United States (KDPA) 41-54N 88-15W 230M
Jan 23, 2022 - 06:52 AM EST / 2022.01.23 1152 UTC
Wind: from the N (360 degrees) at 18 MPH (16 KT):0
Visibility: 4 mile(s):0
Sky conditions: overcast
Weather: light snow
Precipitation last hour: A trace
Temperature: 18.0 F (-7.8 C)
Windchill: 3 F (-16 C):1
Dew Point: 12.9 F (-10.6 C)
Relative Humidity: 80%
Pressure (altimeter): 29.85 in. Hg (1010 hPa)
Pressure tendency: 0.02 inches (0.7 hPa) higher than three hours ago
ob: KDPA 231152Z 36016KT 4SM -SN SCT042 OVC070 M08/M11 A2985 RMK AO2 SLP119 P0000 60015 70016 T10781106 11067 21078 53007
cycle: 12

Station Type Date Time Source
KDPA TAF 2022/01/23 12:33 UTC NOAA

TAF KDPA 231130Z 2312/2412 01012G21KT 5SM -SN SCT015 BKN025
FM231400 35013G23KT P6SM SCT025
FM231700 33012KT P6SM SCT030
FM240100 24008KT P6SM BKN150
FM240700 20011KT 5SM -SN SCT020 OVC040
FM240900 20011G18KT 3SM -SN OVC025

Example: see airport list